createdAt,value
2022-12-05T00:01:32.052Z,45.53
2022-12-05T00:04:02.368Z,35.30
2022-12-05T00:06:31.712Z,40.13
2022-12-05T00:08:59.484Z,36.83
2022-12-05T00:11:32.172Z,38.47
2022-12-05T00:14:01.304Z,44.70
2022-12-05T00:16:32.477Z,45.47
2022-12-05T00:19:04.948Z,42.47
2022-12-05T00:21:35.237Z,37.00
2022-12-05T00:24:04.180Z,39.70
2022-12-05T00:26:32.340Z,48.53
2022-12-05T00:29:00.178Z,50.90
2022-12-05T00:31:28.805Z,48.17
2022-12-05T00:33:56.673Z,48.53
2022-12-05T00:36:30.929Z,43.97
2022-12-05T00:39:02.369Z,45.97
2022-12-05T00:41:29.957Z,47.07
2022-12-05T00:44:00.690Z,45.03
2022-12-05T00:46:31.357Z,38.20
2022-12-05T00:49:00.237Z,42.03
2022-12-05T00:51:35.058Z,42.60
2022-12-05T00:54:05.728Z,38.13
2022-12-05T00:56:34.230Z,46.67
2022-12-05T00:59:02.617Z,47.20
2022-12-05T01:01:35.554Z,46.30
2022-12-05T01:04:25.124Z,39.80
2022-12-05T01:06:57.398Z,39.70
2022-12-05T01:09:25.517Z,43.73
2022-12-05T01:11:52.800Z,45.67
2022-12-05T01:14:22.876Z,42.93
2022-12-05T01:16:52.827Z,48.40
2022-12-05T01:19:30.259Z,40.00
2022-12-05T01:21:58.233Z,43.00
2022-12-05T01:24:26.597Z,41.30
2022-12-05T01:26:54.353Z,42.17
2022-12-05T01:29:23.526Z,36.97
2022-12-05T01:31:51.973Z,38.20
2022-12-05T01:34:19.655Z,39.33
2022-12-05T01:36:47.635Z,34.87
2022-12-05T01:39:15.341Z,36.33
2022-12-05T01:41:47.107Z,35.53
2022-12-05T01:44:14.004Z,36.70
2022-12-05T01:46:51.483Z,36.33
2022-12-05T01:49:25.792Z,31.92
2022-12-05T01:51:58.089Z,27.90
2022-12-05T01:54:25.444Z,29.50
2022-12-05T01:57:06.571Z,24.13
2022-12-05T01:59:51.791Z,27.73
2022-12-05T02:02:19.411Z,33.40
2022-12-05T02:05:01.835Z,25.10
2022-12-05T02:07:29.823Z,28.13
2022-12-05T02:09:57.299Z,27.13
2022-12-05T02:12:25.616Z,29.97
2022-12-05T02:15:26.453Z,27.37
2022-12-05T02:18:13.581Z,25.40
2022-12-05T02:21:22.777Z,29.40
2022-12-05T02:24:15.669Z,25.17
2022-12-05T02:27:33.744Z,25.10
2022-12-05T02:30:49.632Z,22.67
2022-12-05T02:33:30.103Z,26.47
2022-12-05T02:36:13.671Z,23.37
2022-12-05T02:39:00.952Z,27.47
2022-12-05T02:41:42.877Z,24.10
2022-12-05T02:44:22.308Z,27.37
2022-12-05T02:46:52.483Z,24.00
2022-12-05T02:49:30.581Z,23.17
2022-12-05T02:52:00.525Z,21.60
2022-12-05T02:54:35.641Z,22.37
2022-12-05T02:57:04.493Z,24.08
2022-12-05T02:59:31.575Z,23.37
2022-12-05T03:02:01.283Z,26.33
2022-12-05T03:04:30.651Z,20.90
2022-12-05T03:07:07.247Z,21.17
2022-12-05T03:09:56.709Z,26.57
2022-12-05T03:12:33.187Z,21.10
2022-12-05T03:15:08.595Z,20.30
2022-12-05T03:17:56.558Z,21.40
2022-12-05T03:20:34.391Z,20.10
2022-12-05T03:23:14.682Z,20.52
2022-12-05T03:26:25.091Z,21.47
2022-12-05T03:29:12.379Z,28.37
2022-12-05T03:32:29.512Z,23.23
2022-12-05T03:35:26.629Z,19.23
2022-12-05T03:37:56.659Z,24.00
2022-12-05T03:40:47.676Z,22.02
2022-12-05T03:43:37.100Z,25.23
2022-12-05T03:46:14.838Z,21.58
2022-12-05T03:48:56.254Z,22.95
2022-12-05T03:51:31.632Z,21.30
2022-12-05T03:54:03.049Z,20.23
2022-12-05T03:56:48.991Z,21.48
2022-12-05T03:59:32.293Z,21.95
2022-12-05T04:02:05.039Z,21.15
2022-12-05T04:04:39.750Z,20.80
2022-12-05T04:07:09.033Z,21.87
2022-12-05T04:09:47.415Z,22.77
2022-12-05T04:12:26.246Z,24.73
2022-12-05T04:15:19.608Z,21.27
2022-12-05T04:18:01.446Z,21.70
2022-12-05T04:20:59.285Z,23.93
2022-12-05T04:23:28.447Z,19.60
2022-12-05T04:26:20.734Z,19.70
2022-12-05T04:29:04.921Z,19.48
2022-12-05T04:31:48.406Z,21.63
2022-12-05T04:34:18.587Z,23.53
2022-12-05T04:36:55.531Z,17.20
2022-12-05T04:40:01.484Z,18.92
2022-12-05T04:42:32.523Z,16.90
2022-12-05T04:45:06.491Z,20.80
2022-12-05T04:47:41.379Z,19.90
2022-12-05T04:50:11.403Z,22.02
2022-12-05T04:52:41.125Z,23.58
2022-12-05T04:55:20.650Z,21.70
2022-12-05T04:58:08.245Z,24.40
2022-12-05T05:00:58.208Z,23.05
2022-12-05T05:03:54.667Z,25.90
2022-12-05T05:06:22.016Z,20.90
2022-12-05T05:08:57.754Z,22.67
2022-12-05T05:13:54.862Z,22.70
2022-12-05T05:16:35.574Z,23.57
2022-12-05T05:19:02.957Z,28.67
2022-12-05T05:21:36.919Z,21.83
2022-12-05T05:24:05.371Z,21.80
2022-12-05T05:26:36.192Z,20.63
2022-12-05T05:29:03.726Z,23.60
2022-12-05T05:31:30.888Z,24.13
2022-12-05T05:33:58.619Z,20.20
2022-12-05T05:36:27.930Z,21.50
2022-12-05T05:39:01.833Z,23.17
2022-12-05T05:41:34.055Z,24.77
2022-12-05T05:44:02.478Z,21.07
2022-12-05T05:46:32.943Z,23.37
2022-12-05T05:49:01.288Z,24.35
2022-12-05T05:51:29.600Z,22.03
2022-12-05T05:53:58.418Z,22.58
2022-12-05T05:56:25.825Z,27.77
2022-12-05T05:59:00.716Z,21.73
2022-12-05T06:01:28.912Z,24.58
2022-12-05T06:03:56.365Z,25.45
2022-12-05T06:06:24.495Z,26.77
2022-12-05T06:08:51.622Z,23.85
2022-12-05T06:11:26.551Z,26.13
2022-12-05T06:14:02.873Z,23.83
2022-12-05T06:18:59.517Z,28.00
2022-12-05T06:21:26.713Z,28.90
2022-12-05T06:23:54.466Z,27.70
2022-12-05T06:26:22.914Z,27.17
2022-12-05T06:28:50.928Z,26.60
2022-12-05T06:31:22.764Z,29.75
2022-12-05T06:33:50.171Z,24.85
2022-12-05T06:36:21.145Z,28.38
2022-12-05T06:38:48.836Z,27.70
2022-12-05T06:41:19.491Z,29.05
2022-12-05T06:43:47.472Z,25.73
2022-12-05T06:46:16.164Z,37.38
2022-12-05T06:48:43.886Z,25.80
2022-12-05T06:51:14.835Z,25.75
2022-12-05T06:53:42.368Z,26.50
2022-12-05T06:56:14.817Z,28.10
2022-12-05T06:58:44.082Z,27.20
2022-12-05T07:01:35.947Z,29.15
2022-12-05T07:04:04.231Z,29.63
2022-12-05T07:06:32.765Z,31.25
2022-12-05T07:09:05.218Z,25.13
2022-12-05T07:11:32.531Z,26.00
2022-12-05T07:13:59.671Z,32.88
2022-12-05T07:16:26.825Z,30.88
2022-12-05T07:18:54.113Z,27.33
2022-12-05T07:21:24.657Z,30.38
2022-12-05T07:23:52.029Z,28.50
2022-12-05T07:26:23.403Z,32.30
2022-12-05T07:28:52.148Z,32.20
2022-12-05T07:31:23.752Z,31.92
2022-12-05T07:33:51.118Z,27.88
2022-12-05T07:36:21.613Z,31.40
2022-12-05T07:38:49.369Z,28.30
2022-12-05T07:41:22.330Z,34.47
2022-12-05T07:43:52.387Z,34.08
2022-12-05T07:46:20.207Z,32.70
2022-12-05T07:48:48.788Z,27.65
2022-12-05T07:51:16.013Z,30.45
2022-12-05T07:53:44.408Z,32.58
2022-12-05T07:56:17.101Z,32.80
2022-12-05T07:58:46.917Z,32.60
2022-12-05T08:01:33.531Z,39.53
2022-12-05T08:04:00.743Z,36.55
2022-12-05T08:06:30.589Z,44.15
2022-12-05T08:08:58.131Z,37.80
2022-12-05T08:11:30.090Z,38.97
2022-12-05T08:13:58.366Z,38.85
2022-12-05T08:16:29.635Z,41.95
2022-12-05T08:19:05.093Z,38.90
2022-12-05T08:21:32.522Z,39.10
2022-12-05T08:24:00.124Z,45.72
2022-12-05T08:26:30.312Z,38.38
2022-12-05T08:29:01.445Z,41.00
2022-12-05T08:31:31.436Z,46.58
2022-12-05T08:34:00.202Z,35.53
2022-12-05T08:36:32.122Z,45.88
2022-12-05T08:39:02.676Z,34.63
2022-12-05T08:41:30.492Z,37.00
2022-12-05T08:44:03.203Z,36.83
2022-12-05T08:46:32.419Z,41.80
2022-12-05T08:48:59.793Z,37.88
2022-12-05T08:51:26.972Z,36.23
2022-12-05T08:53:56.400Z,40.15
2022-12-05T08:56:27.491Z,35.85
2022-12-05T08:59:02.958Z,35.95
2022-12-05T09:01:33.397Z,36.28
2022-12-05T09:04:01.679Z,36.85
2022-12-05T09:06:29.945Z,35.05
2022-12-05T09:09:00.612Z,34.28
2022-12-05T09:11:32.360Z,36.63
2022-12-05T09:14:01.605Z,37.58
2022-12-05T09:16:36.829Z,39.10
2022-12-05T09:19:11.173Z,34.80
2022-12-05T09:21:38.260Z,37.35
2022-12-05T09:24:05.447Z,33.33
2022-12-05T09:26:32.851Z,32.92
2022-12-05T09:29:01.326Z,38.70
2022-12-05T09:31:29.433Z,39.90
2022-12-05T09:33:56.984Z,33.30
2022-12-05T09:36:28.734Z,39.63
2022-12-05T09:38:59.611Z,35.35
2022-12-05T09:42:19.398Z,34.28
2022-12-05T09:45:05.162Z,35.10
2022-12-05T09:48:01.522Z,35.95
2022-12-05T09:50:57.405Z,39.42
2022-12-05T09:53:44.961Z,38.00
2022-12-05T09:56:44.828Z,32.25
2022-12-05T09:59:16.835Z,33.70
2022-12-05T10:01:49.467Z,33.38
2022-12-05T10:05:00.311Z,32.85
2022-12-05T10:07:49.337Z,37.25
2022-12-05T10:10:28.658Z,40.30
2022-12-05T10:13:43.031Z,40.42
2022-12-05T10:16:29.830Z,34.50
2022-12-05T10:19:05.573Z,33.22
2022-12-05T10:22:09.330Z,33.00
2022-12-05T10:24:48.146Z,38.42
2022-12-05T10:27:21.576Z,42.03
2022-12-05T10:30:03.046Z,35.97
2022-12-05T10:32:56.086Z,33.40
2022-12-05T10:35:33.887Z,37.05
2022-12-05T10:38:06.307Z,39.42
2022-12-05T10:40:41.533Z,37.85
2022-12-05T10:43:13.947Z,33.15
2022-12-05T10:45:47.946Z,39.00
2022-12-05T10:48:18.682Z,39.78
2022-12-05T10:50:49.918Z,42.60
2022-12-05T10:53:38.449Z,36.25
2022-12-05T10:56:54.603Z,39.15
2022-12-05T10:59:43.745Z,42.58
2022-12-05T11:02:31.480Z,37.28
2022-12-05T11:04:59.824Z,36.42
2022-12-05T11:07:49.577Z,39.83
2022-12-05T11:10:35.837Z,42.28
2022-12-05T11:13:24.661Z,32.20
2022-12-05T11:15:55.478Z,37.83
2022-12-05T11:18:25.603Z,46.72
2022-12-05T11:20:53.015Z,40.17
2022-12-05T11:23:30.635Z,40.70
2022-12-05T11:25:59.427Z,35.95
2022-12-05T11:28:36.374Z,40.08
2022-12-05T11:31:12.260Z,40.67
2022-12-05T11:33:40.485Z,43.45
2022-12-05T11:36:20.752Z,46.58
2022-12-05T11:38:48.097Z,39.22
2022-12-05T11:41:57.527Z,42.10
2022-12-05T11:45:09.314Z,46.85
2022-12-05T11:48:19.996Z,48.00
2022-12-05T11:51:25.355Z,47.13
2022-12-05T11:54:56.389Z,41.40
2022-12-05T11:57:48.882Z,44.83
2022-12-05T12:00:31.152Z,44.95
2022-12-05T12:03:43.441Z,42.33
2022-12-05T12:06:18.272Z,44.40
2022-12-05T12:09:18.592Z,43.27
2022-12-05T12:11:52.486Z,47.25
2022-12-05T12:14:54.412Z,46.50
2022-12-05T12:18:02.624Z,41.58
2022-12-05T12:21:06.140Z,45.35
2022-12-05T12:24:24.268Z,44.50
2022-12-05T12:27:22.424Z,43.00
2022-12-05T12:30:21.385Z,40.75
2022-12-05T12:33:05.665Z,41.28
2022-12-05T12:36:14.201Z,59.50
2022-12-05T12:39:16.920Z,50.63
2022-12-05T12:42:14.525Z,51.13
2022-12-05T12:45:21.030Z,49.13
2022-12-05T12:48:33.410Z,53.08
2022-12-05T12:51:03.106Z,54.87
2022-12-05T12:53:59.503Z,52.23
2022-12-05T12:56:38.836Z,58.85
2022-12-05T13:00:01.088Z,53.03
2022-12-05T13:03:00.573Z,52.47
2022-12-05T13:05:44.151Z,51.17
2022-12-05T13:08:49.605Z,48.35
2022-12-05T13:11:18.491Z,47.85
2022-12-05T13:13:53.282Z,51.38
2022-12-05T13:16:42.490Z,50.27
2022-12-05T13:19:28.921Z,54.95
2022-12-05T13:21:58.461Z,57.75
2022-12-05T13:24:29.189Z,56.50
2022-12-05T13:27:15.356Z,53.25
2022-12-05T13:30:08.059Z,53.47
2022-12-05T13:32:41.098Z,50.72
2022-12-05T13:35:08.050Z,56.55
2022-12-05T13:37:54.333Z,59.58
2022-12-05T13:43:11.596Z,56.72
2022-12-05T13:45:40.991Z,54.70
2022-12-05T13:48:22.437Z,53.53
2022-12-05T13:51:27.246Z,45.97
2022-12-05T13:54:25.892Z,53.15
2022-12-05T13:57:02.596Z,44.85
2022-12-05T14:00:05.960Z,50.90
2022-12-05T14:02:47.674Z,46.95
2022-12-05T14:05:20.507Z,49.80
2022-12-05T14:08:03.387Z,52.95
2022-12-05T14:10:36.454Z,48.22
2022-12-05T14:13:16.068Z,53.83
2022-12-05T14:15:46.007Z,67.10
2022-12-05T14:18:26.629Z,68.20
2022-12-05T14:21:34.455Z,50.65
2022-12-05T14:24:22.045Z,51.20
2022-12-05T14:26:54.687Z,57.63
2022-12-05T14:29:57.744Z,58.60
2022-12-05T14:32:30.026Z,55.00
2022-12-05T14:35:31.443Z,48.28
2022-12-05T14:38:18.862Z,51.90
2022-12-05T14:40:48.128Z,47.88
2022-12-05T14:43:34.509Z,51.35
2022-12-05T14:46:05.925Z,49.47
2022-12-05T14:48:48.733Z,47.78
2022-12-05T14:51:55.481Z,49.55
2022-12-05T14:54:25.250Z,41.30
2022-12-05T14:57:04.342Z,46.88
2022-12-05T14:59:52.721Z,44.50
2022-12-05T15:02:35.845Z,42.85
2022-12-05T15:05:06.189Z,48.80
2022-12-05T15:07:39.579Z,45.05
2022-12-05T15:10:19.836Z,43.22
2022-12-05T15:13:18.004Z,40.88
2022-12-05T15:16:04.062Z,41.28
2022-12-05T15:18:44.424Z,41.85
2022-12-05T15:21:26.672Z,40.97
2022-12-05T15:24:18.180Z,41.05
2022-12-05T15:27:00.485Z,39.97
2022-12-05T15:29:32.784Z,43.15
2022-12-05T15:32:10.412Z,42.97
2022-12-05T15:35:05.824Z,37.92
2022-12-05T15:38:13.667Z,48.15
2022-12-05T15:40:47.645Z,33.80
2022-12-05T15:43:37.412Z,41.47
2022-12-05T15:46:24.021Z,41.83
2022-12-05T15:48:53.475Z,45.13
2022-12-05T15:51:25.757Z,44.50
2022-12-05T15:54:27.690Z,37.50
2022-12-05T15:57:06.894Z,36.72
2022-12-05T15:59:47.413Z,42.50
2022-12-05T16:02:24.227Z,38.90
2022-12-05T16:04:56.789Z,37.00
2022-12-05T16:07:28.864Z,33.60
2022-12-05T16:09:59.401Z,35.85
2022-12-05T16:12:37.354Z,31.17
2022-12-05T16:15:14.161Z,27.20
2022-12-05T16:17:47.280Z,25.80
2022-12-05T16:20:17.671Z,22.73
2022-12-05T16:22:51.841Z,20.08
2022-12-05T16:25:28.864Z,16.77
2022-12-05T16:28:16.345Z,17.60
2022-12-05T16:30:59.713Z,18.42
2022-12-05T16:33:30.388Z,14.02
2022-12-05T16:36:12.476Z,18.20
2022-12-05T16:38:45.431Z,17.63
2022-12-05T16:41:16.164Z,16.30
2022-12-05T16:43:45.924Z,19.40
2022-12-05T16:46:13.804Z,15.23
2022-12-05T16:48:44.945Z,13.95
2022-12-05T16:51:15.165Z,18.53
2022-12-05T16:53:46.549Z,17.52
2022-12-05T16:56:28.522Z,14.20
2022-12-05T16:58:56.580Z,17.98
2022-12-05T17:01:27.500Z,16.02
2022-12-05T17:03:56.370Z,14.93
2022-12-05T17:06:26.177Z,14.90
2022-12-05T17:08:55.050Z,15.73
2022-12-05T17:11:27.189Z,17.80
2022-12-05T17:13:58.303Z,15.77
2022-12-05T17:16:29.301Z,20.40
2022-12-05T17:18:57.112Z,18.10
2022-12-05T17:21:32.067Z,19.48
2022-12-05T17:24:00.132Z,18.90
2022-12-05T17:26:28.439Z,18.63
2022-12-05T17:28:56.953Z,22.53
2022-12-05T17:31:26.324Z,16.40
2022-12-05T17:33:55.532Z,17.40
2022-12-05T17:36:24.785Z,16.55
2022-12-05T17:38:52.917Z,16.35
2022-12-05T17:41:25.055Z,15.70
2022-12-05T17:43:52.512Z,17.17
2022-12-05T17:46:23.384Z,18.63
2022-12-05T17:48:51.984Z,17.27
2022-12-05T17:51:20.649Z,17.10
2022-12-05T17:53:47.888Z,14.48
2022-12-05T17:56:15.849Z,19.23
2022-12-05T17:58:44.627Z,17.43
2022-12-05T18:01:17.764Z,19.98
2022-12-05T18:03:45.266Z,17.40
2022-12-05T18:06:12.927Z,17.95
2022-12-05T18:08:42.179Z,21.05
2022-12-05T18:11:09.688Z,18.77
2022-12-05T18:13:36.816Z,18.92
2022-12-05T18:16:05.095Z,19.60
2022-12-05T18:18:32.470Z,18.67
2022-12-05T18:21:12.580Z,21.85
2022-12-05T18:23:41.350Z,20.47
2022-12-05T18:26:10.915Z,16.35
2022-12-05T18:28:40.565Z,16.83
2022-12-05T18:31:17.562Z,18.70
2022-12-05T18:33:46.764Z,27.23
2022-12-05T18:36:18.687Z,24.70
2022-12-05T18:38:58.840Z,22.50
2022-12-05T18:41:27.676Z,25.30
2022-12-05T18:43:56.033Z,20.88
2022-12-05T18:46:25.666Z,17.85
2022-12-05T18:48:54.355Z,25.20
2022-12-05T18:51:24.673Z,23.75
2022-12-05T18:53:54.500Z,22.35
2022-12-05T18:56:26.728Z,21.52
2022-12-05T18:59:09.597Z,23.83
2022-12-05T19:01:41.072Z,24.38
2022-12-05T19:04:13.039Z,25.27
2022-12-05T19:06:46.649Z,27.08
2022-12-05T19:09:21.098Z,20.35
2022-12-05T19:11:52.281Z,20.55
2022-12-05T19:14:21.453Z,26.17
2022-12-05T19:16:58.034Z,20.05
2022-12-05T19:19:29.106Z,29.77
2022-12-05T19:21:59.541Z,27.65
2022-12-05T19:24:28.035Z,28.27
2022-12-05T19:26:56.306Z,21.83
2022-12-05T19:29:24.221Z,23.83
2022-12-05T19:31:52.126Z,25.40
2022-12-05T19:34:20.035Z,24.73
2022-12-05T19:36:48.213Z,26.98
2022-12-05T19:39:20.975Z,26.50
2022-12-05T19:41:52.256Z,26.08
2022-12-05T19:44:20.155Z,30.00
2022-12-05T19:46:51.046Z,24.75
2022-12-05T19:49:20.313Z,25.08
2022-12-05T19:51:49.159Z,22.83
2022-12-05T19:54:22.121Z,29.27
2022-12-05T19:56:50.200Z,30.73
2022-12-05T19:59:20.822Z,26.23
2022-12-05T20:01:50.509Z,20.80
2022-12-05T20:04:18.690Z,20.02
2022-12-05T20:06:51.473Z,24.95
2022-12-05T20:09:22.974Z,23.63
2022-12-05T20:11:56.027Z,27.30
2022-12-05T20:14:26.061Z,26.17
2022-12-05T20:16:55.386Z,22.70
2022-12-05T20:19:24.773Z,22.50
2022-12-05T20:21:52.746Z,27.77
2022-12-05T20:24:21.545Z,21.02
2022-12-05T20:26:50.311Z,25.52
2022-12-05T20:29:18.309Z,24.02
2022-12-05T20:31:46.334Z,25.25
2022-12-05T20:34:16.050Z,17.83
2022-12-05T20:36:44.097Z,21.15
2022-12-05T20:39:16.526Z,17.50
2022-12-05T20:41:45.325Z,24.48
2022-12-05T20:44:16.690Z,25.40
2022-12-05T20:46:44.562Z,25.90
2022-12-05T20:49:15.760Z,23.63
2022-12-05T20:51:49.458Z,22.77
2022-12-05T20:54:18.695Z,21.77
2022-12-05T20:56:47.338Z,22.70
2022-12-05T20:59:15.936Z,26.92
2022-12-05T21:01:48.810Z,27.33
2022-12-05T21:04:16.830Z,24.75
2022-12-05T21:06:45.971Z,28.57
2022-12-05T21:09:26.357Z,26.23
2022-12-05T21:11:57.229Z,25.17
2022-12-05T21:14:24.804Z,21.75
2022-12-05T21:16:53.240Z,26.00
2022-12-05T21:19:21.452Z,20.17
2022-12-05T21:21:48.975Z,22.90
2022-12-05T21:24:16.386Z,21.80
2022-12-05T21:26:43.662Z,26.40
2022-12-05T21:29:11.237Z,23.70
2022-12-05T21:31:42.289Z,21.60
2022-12-05T21:34:20.494Z,25.15
2022-12-05T21:36:48.175Z,19.60
2022-12-05T21:39:15.734Z,21.98
2022-12-05T21:41:43.089Z,25.33
2022-12-05T21:44:10.350Z,23.33
2022-12-05T21:46:37.641Z,23.35
2022-12-05T21:49:04.848Z,20.60
2022-12-05T21:51:31.902Z,21.70
2022-12-05T21:53:58.976Z,19.98
2022-12-05T21:56:26.019Z,23.30
2022-12-05T21:58:53.509Z,23.17
2022-12-05T22:01:24.379Z,29.85
2022-12-05T22:03:59.233Z,25.70
2022-12-05T22:06:26.780Z,22.37
2022-12-05T22:08:55.502Z,25.60
2022-12-05T22:11:24.922Z,22.73
2022-12-05T22:13:52.982Z,22.52
2022-12-05T22:16:21.024Z,21.63
2022-12-05T22:18:48.795Z,22.90
2022-12-05T22:21:21.184Z,22.07
2022-12-05T22:23:49.095Z,29.27
2022-12-05T22:26:23.184Z,25.75
2022-12-05T22:28:52.076Z,23.80
2022-12-05T22:31:20.753Z,21.95
2022-12-05T22:33:48.719Z,23.55
2022-12-05T22:36:18.640Z,22.30
2022-12-05T22:38:48.044Z,26.63
2022-12-05T22:41:26.425Z,24.88
2022-12-05T22:43:59.304Z,27.37
2022-12-05T22:46:28.829Z,24.33
2022-12-05T22:48:56.812Z,25.55
2022-12-05T22:51:24.078Z,24.25
2022-12-05T22:53:52.672Z,24.83
2022-12-05T22:56:21.807Z,20.97
2022-12-05T22:58:49.274Z,21.30
2022-12-05T23:01:31.365Z,27.10
2022-12-05T23:04:10.132Z,27.40
2022-12-05T23:06:38.747Z,27.70
2022-12-05T23:09:09.706Z,23.70
2022-12-05T23:11:38.092Z,24.67
2022-12-05T23:14:06.989Z,24.47
2022-12-05T23:16:34.743Z,19.53
2022-12-05T23:19:05.014Z,19.23
2022-12-05T23:21:40.577Z,20.07
2022-12-05T23:24:11.290Z,21.23
2022-12-05T23:26:45.724Z,18.87
2022-12-05T23:29:14.302Z,15.67
2022-12-05T23:31:42.208Z,21.80
2022-12-05T23:34:09.986Z,19.30
2022-12-05T23:36:37.874Z,19.20
2022-12-05T23:39:05.966Z,21.87
2022-12-05T23:41:33.180Z,15.03
2022-12-05T23:44:00.367Z,17.03
2022-12-05T23:46:28.391Z,13.20
2022-12-05T23:48:56.236Z,12.07
2022-12-05T23:51:27.623Z,12.93
2022-12-05T23:54:00.537Z,13.40
2022-12-05T23:56:33.398Z,13.93
2022-12-05T23:59:02.515Z,9.57
